sensor_id;sensor_type;location;lat;lon;timestamp;P1;durP1;ratioP1;P2;durP2;ratioP2
65667;SDS011;52369;52.542;13.232;2023-09-12T00:00:55;18.00;;;11.18;;
65667;SDS011;52369;52.542;13.232;2023-09-12T00:03:22;18.13;;;11.73;;
65667;SDS011;52369;52.542;13.232;2023-09-12T00:05:55;18.75;;;11.68;;
65667;SDS011;52369;52.542;13.232;2023-09-12T00:08:22;17.33;;;11.20;;
65667;SDS011;52369;52.542;13.232;2023-09-12T00:10:58;18.80;;;11.52;;
65667;SDS011;52369;52.542;13.232;2023-09-12T00:13:24;16.48;;;9.98;;
65667;SDS011;52369;52.542;13.232;2023-09-12T00:15:50;15.60;;;10.25;;
65667;SDS011;52369;52.542;13.232;2023-09-12T00:18:16;15.95;;;10.07;;
65667;SDS011;52369;52.542;13.232;2023-09-12T00:20:42;17.55;;;10.75;;
65667;SDS011;52369;52.542;13.232;2023-09-12T00:23:08;17.15;;;10.25;;
65667;SDS011;52369;52.542;13.232;2023-09-12T00:25:34;17.20;;;10.18;;
65667;SDS011;52369;52.542;13.232;2023-09-12T00:28:00;16.48;;;10.43;;
65667;SDS011;52369;52.542;13.232;2023-09-12T00:30:26;16.65;;;9.88;;
65667;SDS011;52369;52.542;13.232;2023-09-12T00:32:52;13.70;;;9.48;;
65667;SDS011;52369;52.542;13.232;2023-09-12T00:35:18;13.30;;;9.38;;
65667;SDS011;52369;52.542;13.232;2023-09-12T00:37:44;13.38;;;8.50;;
65667;SDS011;52369;52.542;13.232;2023-09-12T00:40:10;17.25;;;9.77;;
65667;SDS011;52369;52.542;13.232;2023-09-12T00:42:36;13.93;;;9.35;;
65667;SDS011;52369;52.542;13.232;2023-09-12T00:45:02;12.80;;;8.73;;
65667;SDS011;52369;52.542;13.232;2023-09-12T00:47:28;16.83;;;9.15;;
65667;SDS011;52369;52.542;13.232;2023-09-12T00:49:55;13.32;;;8.57;;
65667;SDS011;52369;52.542;13.232;2023-09-12T00:52:23;14.52;;;8.82;;
65667;SDS011;52369;52.542;13.232;2023-09-12T00:54:50;14.98;;;9.50;;
65667;SDS011;52369;52.542;13.232;2023-09-12T00:57:16;16.38;;;9.75;;
65667;SDS011;52369;52.542;13.232;2023-09-12T00:59:42;13.25;;;8.43;;
65667;SDS011;52369;52.542;13.232;2023-09-12T01:02:08;13.45;;;8.45;;
65667;SDS011;52369;52.542;13.232;2023-09-12T01:04:35;14.00;;;8.77;;
65667;SDS011;52369;52.542;13.232;2023-09-12T01:07:05;13.23;;;8.93;;
65667;SDS011;52369;52.542;13.232;2023-09-12T01:09:31;14.93;;;9.73;;
65667;SDS011;52369;52.542;13.232;2023-09-12T01:11:58;13.65;;;9.32;;
65667;SDS011;52369;52.542;13.232;2023-09-12T01:14:24;12.75;;;8.68;;
65667;SDS011;52369;52.542;13.232;2023-09-12T01:16:50;12.20;;;9.15;;
65667;SDS011;52369;52.542;13.232;2023-09-12T01:19:16;13.93;;;8.82;;
65667;SDS011;52369;52.542;13.232;2023-09-12T01:29:49;13.57;;;9.75;;
65667;SDS011;52369;52.542;13.232;2023-09-12T01:32:16;15.00;;;9.73;;
65667;SDS011;52369;52.542;13.232;2023-09-12T01:34:43;15.02;;;9.38;;
65667;SDS011;52369;52.542;13.232;2023-09-12T01:37:10;15.32;;;9.95;;
65667;SDS011;52369;52.542;13.232;2023-09-12T01:39:36;15.73;;;10.50;;
65667;SDS011;52369;52.542;13.232;2023-09-12T01:42:02;15.20;;;10.48;;
65667;SDS011;52369;52.542;13.232;2023-09-12T01:44:28;16.92;;;11.00;;
65667;SDS011;52369;52.542;13.232;2023-09-12T01:46:54;17.88;;;11.30;;
65667;SDS011;52369;52.542;13.232;2023-09-12T01:49:23;16.27;;;10.88;;
65667;SDS011;52369;52.542;13.232;2023-09-12T01:51:50;14.70;;;10.20;;
65667;SDS011;52369;52.542;13.232;2023-09-12T01:54:17;14.82;;;9.95;;
65667;SDS011;52369;52.542;13.232;2023-09-12T01:56:45;15.68;;;10.40;;
65667;SDS011;52369;52.542;13.232;2023-09-12T01:59:11;15.95;;;10.10;;
65667;SDS011;52369;52.542;13.232;2023-09-12T02:01:37;17.75;;;10.90;;
65667;SDS011;52369;52.542;13.232;2023-09-12T02:04:03;14.82;;;10.05;;
65667;SDS011;52369;52.542;13.232;2023-09-12T02:06:33;16.52;;;10.70;;
65667;SDS011;52369;52.542;13.232;2023-09-12T02:08:59;16.25;;;10.68;;
65667;SDS011;52369;52.542;13.232;2023-09-12T02:11:26;17.83;;;11.15;;
65667;SDS011;52369;52.542;13.232;2023-09-12T02:13:52;15.98;;;10.77;;
65667;SDS011;52369;52.542;13.232;2023-09-12T02:16:18;14.80;;;10.40;;
65667;SDS011;52369;52.542;13.232;2023-09-12T02:18:44;14.98;;;10.65;;
65667;SDS011;52369;52.542;13.232;2023-09-12T02:21:10;17.38;;;11.27;;
65667;SDS011;52369;52.542;13.232;2023-09-12T02:23:36;17.20;;;11.43;;
65667;SDS011;52369;52.542;13.232;2023-09-12T02:26:02;16.85;;;10.95;;
65667;SDS011;52369;52.542;13.232;2023-09-12T02:28:28;15.30;;;10.45;;
65667;SDS011;52369;52.542;13.232;2023-09-12T02:30:54;15.48;;;10.48;;
65667;SDS011;52369;52.542;13.232;2023-09-12T02:33:20;15.00;;;10.57;;
65667;SDS011;52369;52.542;13.232;2023-09-12T02:35:46;17.08;;;11.27;;
65667;SDS011;52369;52.542;13.232;2023-09-12T02:38:13;17.65;;;12.18;;
65667;SDS011;52369;52.542;13.232;2023-09-12T02:40:39;17.80;;;10.90;;
65667;SDS011;52369;52.542;13.232;2023-09-12T02:43:05;18.50;;;11.90;;
65667;SDS011;52369;52.542;13.232;2023-09-12T02:45:31;15.82;;;10.77;;
65667;SDS011;52369;52.542;13.232;2023-09-12T02:47:58;16.17;;;10.52;;
65667;SDS011;52369;52.542;13.232;2023-09-12T02:50:24;16.42;;;11.40;;
65667;SDS011;52369;52.542;13.232;2023-09-12T02:52:50;17.60;;;11.02;;
65667;SDS011;52369;52.542;13.232;2023-09-12T02:55:16;19.98;;;10.95;;
65667;SDS011;52369;52.542;13.232;2023-09-12T02:57:42;15.40;;;10.55;;
65667;SDS011;52369;52.542;13.232;2023-09-12T03:00:08;15.68;;;10.70;;
65667;SDS011;52369;52.542;13.232;2023-09-12T03:02:34;15.57;;;10.52;;
65667;SDS011;52369;52.542;13.232;2023-09-12T03:05:00;17.85;;;11.15;;
65667;SDS011;52369;52.542;13.232;2023-09-12T03:07:27;15.70;;;10.77;;
65667;SDS011;52369;52.542;13.232;2023-09-12T03:09:53;15.60;;;11.20;;
65667;SDS011;52369;52.542;13.232;2023-09-12T03:12:19;17.88;;;11.63;;
65667;SDS011;52369;52.542;13.232;2023-09-12T03:14:45;17.73;;;11.45;;
65667;SDS011;52369;52.542;13.232;2023-09-12T03:17:11;16.90;;;11.48;;
65667;SDS011;52369;52.542;13.232;2023-09-12T03:19:37;16.88;;;11.25;;
65667;SDS011;52369;52.542;13.232;2023-09-12T03:22:03;17.42;;;11.45;;
65667;SDS011;52369;52.542;13.232;2023-09-12T03:24:29;15.70;;;11.15;;
65667;SDS011;52369;52.542;13.232;2023-09-12T03:26:56;15.60;;;10.52;;
65667;SDS011;52369;52.542;13.232;2023-09-12T03:29:22;14.65;;;10.85;;
65667;SDS011;52369;52.542;13.232;2023-09-12T03:31:48;17.08;;;11.98;;
65667;SDS011;52369;52.542;13.232;2023-09-12T03:34:14;16.38;;;10.77;;
65667;SDS011;52369;52.542;13.232;2023-09-12T03:36:40;17.02;;;10.98;;
65667;SDS011;52369;52.542;13.232;2023-09-12T03:39:06;18.35;;;11.57;;
65667;SDS011;52369;52.542;13.232;2023-09-12T03:41:34;16.98;;;11.52;;
65667;SDS011;52369;52.542;13.232;2023-09-12T03:44:00;18.42;;;11.45;;
65667;SDS011;52369;52.542;13.232;2023-09-12T03:46:26;18.08;;;10.85;;
65667;SDS011;52369;52.542;13.232;2023-09-12T03:48:52;17.55;;;11.15;;
65667;SDS011;52369;52.542;13.232;2023-09-12T03:51:18;16.92;;;11.35;;
65667;SDS011;52369;52.542;13.232;2023-09-12T03:53:44;17.98;;;11.23;;
65667;SDS011;52369;52.542;13.232;2023-09-12T03:56:12;18.40;;;12.07;;
65667;SDS011;52369;52.542;13.232;2023-09-12T03:58:39;19.40;;;11.90;;
65667;SDS011;52369;52.542;13.232;2023-09-12T04:01:05;17.50;;;11.55;;
65667;SDS011;52369;52.542;13.232;2023-09-12T04:03:31;16.92;;;11.63;;
65667;SDS011;52369;52.542;13.232;2023-09-12T04:05:58;17.63;;;11.77;;
65667;SDS011;52369;52.542;13.232;2023-09-12T04:08:24;19.42;;;11.88;;
65667;SDS011;52369;52.542;13.232;2023-09-12T04:10:50;18.98;;;11.73;;
65667;SDS011;52369;52.542;13.232;2023-09-12T04:13:16;21.83;;;11.95;;
65667;SDS011;52369;52.542;13.232;2023-09-12T04:15:42;19.67;;;12.25;;
65667;SDS011;52369;52.542;13.232;2023-09-12T04:18:08;20.77;;;13.05;;
65667;SDS011;52369;52.542;13.232;2023-09-12T04:20:34;19.83;;;12.75;;
65667;SDS011;52369;52.542;13.232;2023-09-12T04:23:00;18.75;;;11.82;;
65667;SDS011;52369;52.542;13.232;2023-09-12T04:25:27;20.40;;;12.05;;
65667;SDS011;52369;52.542;13.232;2023-09-12T04:27:53;19.13;;;11.73;;
65667;SDS011;52369;52.542;13.232;2023-09-12T04:30:19;18.27;;;12.07;;
65667;SDS011;52369;52.542;13.232;2023-09-12T04:32:45;21.85;;;13.23;;
65667;SDS011;52369;52.542;13.232;2023-09-12T04:35:11;18.25;;;12.50;;
65667;SDS011;52369;52.542;13.232;2023-09-12T04:37:37;19.27;;;12.60;;
65667;SDS011;52369;52.542;13.232;2023-09-12T04:40:04;21.73;;;13.48;;
65667;SDS011;52369;52.542;13.232;2023-09-12T04:42:31;20.58;;;12.32;;
65667;SDS011;52369;52.542;13.232;2023-09-12T04:44:58;17.15;;;11.93;;
65667;SDS011;52369;52.542;13.232;2023-09-12T04:47:24;18.90;;;12.23;;
65667;SDS011;52369;52.542;13.232;2023-09-12T04:49:49;22.95;;;14.00;;
65667;SDS011;52369;52.542;13.232;2023-09-12T04:52:15;32.25;;;19.58;;
65667;SDS011;52369;52.542;13.232;2023-09-12T04:54:41;23.50;;;15.15;;
65667;SDS011;52369;52.542;13.232;2023-09-12T04:57:07;19.35;;;13.50;;
65667;SDS011;52369;52.542;13.232;2023-09-12T04:59:34;20.40;;;13.80;;
65667;SDS011;52369;52.542;13.232;2023-09-12T05:02:00;19.75;;;14.00;;
65667;SDS011;52369;52.542;13.232;2023-09-12T05:04:26;21.20;;;12.60;;
65667;SDS011;52369;52.542;13.232;2023-09-12T05:06:52;22.13;;;13.02;;
65667;SDS011;52369;52.542;13.232;2023-09-12T05:09:18;19.23;;;12.40;;
65667;SDS011;52369;52.542;13.232;2023-09-12T05:11:44;18.88;;;11.93;;
65667;SDS011;52369;52.542;13.232;2023-09-12T05:14:10;17.55;;;11.82;;
65667;SDS011;52369;52.542;13.232;2023-09-12T05:16:36;18.05;;;12.68;;
65667;SDS011;52369;52.542;13.232;2023-09-12T05:19:02;21.77;;;14.00;;
65667;SDS011;52369;52.542;13.232;2023-09-12T05:21:28;22.10;;;12.73;;
65667;SDS011;52369;52.542;13.232;2023-09-12T05:23:54;17.83;;;11.63;;
65667;SDS011;52369;52.542;13.232;2023-09-12T05:26:20;18.40;;;12.13;;
65667;SDS011;52369;52.542;13.232;2023-09-12T05:28:46;19.45;;;11.38;;
65667;SDS011;52369;52.542;13.232;2023-09-12T05:31:13;20.67;;;12.20;;
65667;SDS011;52369;52.542;13.232;2023-09-12T05:33:39;18.98;;;12.55;;
65667;SDS011;52369;52.542;13.232;2023-09-12T05:36:05;20.88;;;11.75;;
65667;SDS011;52369;52.542;13.232;2023-09-12T05:38:31;18.88;;;12.27;;
65667;SDS011;52369;52.542;13.232;2023-09-12T05:40:57;17.45;;;11.75;;
65667;SDS011;52369;52.542;13.232;2023-09-12T05:43:23;21.88;;;12.02;;
65667;SDS011;52369;52.542;13.232;2023-09-12T05:45:49;19.23;;;12.10;;
65667;SDS011;52369;52.542;13.232;2023-09-12T05:48:15;20.65;;;13.18;;
65667;SDS011;52369;52.542;13.232;2023-09-12T05:50:41;19.58;;;12.50;;
65667;SDS011;52369;52.542;13.232;2023-09-12T05:53:07;20.17;;;12.38;;
65667;SDS011;52369;52.542;13.232;2023-09-12T05:55:34;20.95;;;12.30;;
65667;SDS011;52369;52.542;13.232;2023-09-12T05:57:59;23.92;;;13.57;;
65667;SDS011;52369;52.542;13.232;2023-09-12T06:00:26;22.25;;;12.07;;
65667;SDS011;52369;52.542;13.232;2023-09-12T06:02:52;23.08;;;12.50;;
65667;SDS011;52369;52.542;13.232;2023-09-12T06:05:18;23.75;;;12.32;;
65667;SDS011;52369;52.542;13.232;2023-09-12T06:07:44;20.65;;;12.20;;
65667;SDS011;52369;52.542;13.232;2023-09-12T06:10:11;22.17;;;12.45;;
65667;SDS011;52369;52.542;13.232;2023-09-12T06:12:37;27.50;;;14.80;;
65667;SDS011;52369;52.542;13.232;2023-09-12T06:15:04;25.63;;;14.32;;
65667;SDS011;52369;52.542;13.232;2023-09-12T06:17:30;24.60;;;15.55;;
65667;SDS011;52369;52.542;13.232;2023-09-12T06:19:56;19.08;;;13.10;;
65667;SDS011;52369;52.542;13.232;2023-09-12T06:22:22;20.00;;;11.70;;
65667;SDS011;52369;52.542;13.232;2023-09-12T06:24:52;19.25;;;10.52;;
65667;SDS011;52369;52.542;13.232;2023-09-12T06:27:18;18.92;;;11.07;;
65667;SDS011;52369;52.542;13.232;2023-09-12T06:29:47;20.58;;;11.32;;
65667;SDS011;52369;52.542;13.232;2023-09-12T06:32:22;16.65;;;10.35;;
65667;SDS011;52369;52.542;13.232;2023-09-12T06:34:48;22.80;;;11.15;;
65667;SDS011;52369;52.542;13.232;2023-09-12T06:37:14;19.17;;;11.65;;
65667;SDS011;52369;52.542;13.232;2023-09-12T06:39:40;17.02;;;10.27;;
65667;SDS011;52369;52.542;13.232;2023-09-12T06:42:06;16.98;;;9.90;;
65667;SDS011;52369;52.542;13.232;2023-09-12T06:44:32;16.80;;;8.98;;
65667;SDS011;52369;52.542;13.232;2023-09-12T06:46:58;15.52;;;8.90;;
65667;SDS011;52369;52.542;13.232;2023-09-12T06:49:24;19.38;;;9.07;;
65667;SDS011;52369;52.542;13.232;2023-09-12T06:51:50;14.75;;;8.52;;
65667;SDS011;52369;52.542;13.232;2023-09-12T06:54:16;14.85;;;9.55;;
65667;SDS011;52369;52.542;13.232;2023-09-12T06:56:42;15.15;;;8.38;;
65667;SDS011;52369;52.542;13.232;2023-09-12T06:59:08;16.42;;;8.57;;
65667;SDS011;52369;52.542;13.232;2023-09-12T07:01:35;15.75;;;8.30;;
65667;SDS011;52369;52.542;13.232;2023-09-12T07:04:02;14.07;;;8.60;;
65667;SDS011;52369;52.542;13.232;2023-09-12T07:06:28;17.85;;;8.90;;
65667;SDS011;52369;52.542;13.232;2023-09-12T07:08:54;15.05;;;8.23;;
65667;SDS011;52369;52.542;13.232;2023-09-12T07:11:20;12.73;;;8.35;;
65667;SDS011;52369;52.542;13.232;2023-09-12T07:13:46;16.27;;;9.02;;
65667;SDS011;52369;52.542;13.232;2023-09-12T07:16:12;17.20;;;8.75;;
65667;SDS011;52369;52.542;13.232;2023-09-12T07:18:38;17.73;;;9.20;;
65667;SDS011;52369;52.542;13.232;2023-09-12T07:21:04;20.75;;;9.20;;
65667;SDS011;52369;52.542;13.232;2023-09-12T07:23:31;15.98;;;8.02;;
65667;SDS011;52369;52.542;13.232;2023-09-12T07:25:57;17.50;;;8.50;;
65667;SDS011;52369;52.542;13.232;2023-09-12T07:28:24;18.10;;;8.85;;
65667;SDS011;52369;52.542;13.232;2023-09-12T07:30:50;16.20;;;8.73;;
65667;SDS011;52369;52.542;13.232;2023-09-12T07:33:16;17.73;;;8.02;;
65667;SDS011;52369;52.542;13.232;2023-09-12T07:35:42;12.48;;;8.20;;
65667;SDS011;52369;52.542;13.232;2023-09-12T07:38:08;18.42;;;10.13;;
65667;SDS011;52369;52.542;13.232;2023-09-12T07:40:34;14.35;;;8.65;;
65667;SDS011;52369;52.542;13.232;2023-09-12T07:43:00;16.70;;;8.60;;
65667;SDS011;52369;52.542;13.232;2023-09-12T07:45:27;15.05;;;9.43;;
65667;SDS011;52369;52.542;13.232;2023-09-12T07:47:54;17.00;;;9.07;;
65667;SDS011;52369;52.542;13.232;2023-09-12T07:50:21;17.65;;;9.45;;
65667;SDS011;52369;52.542;13.232;2023-09-12T07:52:47;18.02;;;8.60;;
65667;SDS011;52369;52.542;13.232;2023-09-12T07:55:13;18.13;;;7.95;;
65667;SDS011;52369;52.542;13.232;2023-09-12T07:57:39;15.10;;;8.05;;
65667;SDS011;52369;52.542;13.232;2023-09-12T08:00:05;18.58;;;7.68;;
65667;SDS011;52369;52.542;13.232;2023-09-12T08:02:35;13.68;;;7.75;;
65667;SDS011;52369;52.542;13.232;2023-09-12T08:05:01;15.77;;;8.90;;
65667;SDS011;52369;52.542;13.232;2023-09-12T08:07:27;13.20;;;8.07;;
65667;SDS011;52369;52.542;13.232;2023-09-12T08:09:54;14.98;;;7.95;;
65667;SDS011;52369;52.542;13.232;2023-09-12T08:12:22;13.80;;;7.30;;
65667;SDS011;52369;52.542;13.232;2023-09-12T08:14:49;14.90;;;7.70;;
65667;SDS011;52369;52.542;13.232;2023-09-12T08:17:15;12.50;;;7.32;;
65667;SDS011;52369;52.542;13.232;2023-09-12T08:19:41;12.10;;;7.30;;
65667;SDS011;52369;52.542;13.232;2023-09-12T08:22:08;15.63;;;8.25;;
65667;SDS011;52369;52.542;13.232;2023-09-12T08:24:34;15.15;;;7.53;;
65667;SDS011;52369;52.542;13.232;2023-09-12T08:27:01;15.43;;;7.95;;
65667;SDS011;52369;52.542;13.232;2023-09-12T08:29:30;18.30;;;8.38;;
65667;SDS011;52369;52.542;13.232;2023-09-12T08:31:59;13.00;;;7.70;;
65667;SDS011;52369;52.542;13.232;2023-09-12T08:34:25;12.57;;;7.78;;
65667;SDS011;52369;52.542;13.232;2023-09-12T08:36:51;17.48;;;8.85;;
65667;SDS011;52369;52.542;13.232;2023-09-12T08:39:19;14.25;;;8.02;;
65667;SDS011;52369;52.542;13.232;2023-09-12T08:41:49;12.88;;;7.30;;
65667;SDS011;52369;52.542;13.232;2023-09-12T08:44:15;13.02;;;7.07;;
65667;SDS011;52369;52.542;13.232;2023-09-12T08:46:41;13.93;;;7.53;;
65667;SDS011;52369;52.542;13.232;2023-09-12T08:49:08;17.05;;;6.80;;
65667;SDS011;52369;52.542;13.232;2023-09-12T08:51:37;17.40;;;7.78;;
65667;SDS011;52369;52.542;13.232;2023-09-12T08:54:04;15.57;;;7.18;;
65667;SDS011;52369;52.542;13.232;2023-09-12T08:56:31;16.17;;;7.78;;
65667;SDS011;52369;52.542;13.232;2023-09-12T08:58:58;13.13;;;7.03;;
65667;SDS011;52369;52.542;13.232;2023-09-12T09:01:25;12.38;;;7.13;;
65667;SDS011;52369;52.542;13.232;2023-09-12T09:03:54;14.95;;;7.95;;
65667;SDS011;52369;52.542;13.232;2023-09-12T09:06:21;13.70;;;7.93;;
65667;SDS011;52369;52.542;13.232;2023-09-12T09:08:48;16.30;;;7.65;;
65667;SDS011;52369;52.542;13.232;2023-09-12T09:11:17;13.95;;;7.75;;
65667;SDS011;52369;52.542;13.232;2023-09-12T09:13:43;17.33;;;8.05;;
65667;SDS011;52369;52.542;13.232;2023-09-12T09:18:52;14.60;;;8.20;;
65667;SDS011;52369;52.542;13.232;2023-09-12T09:21:19;16.88;;;7.75;;
65667;SDS011;52369;52.542;13.232;2023-09-12T09:23:45;14.75;;;8.40;;
65667;SDS011;52369;52.542;13.232;2023-09-12T09:26:12;15.70;;;8.32;;
65667;SDS011;52369;52.542;13.232;2023-09-12T09:28:38;12.93;;;9.00;;
65667;SDS011;52369;52.542;13.232;2023-09-12T09:31:04;15.55;;;9.00;;
65667;SDS011;52369;52.542;13.232;2023-09-12T09:33:34;14.98;;;8.55;;
65667;SDS011;52369;52.542;13.232;2023-09-12T09:36:02;16.42;;;8.38;;
65667;SDS011;52369;52.542;13.232;2023-09-12T09:38:29;18.00;;;8.60;;
65667;SDS011;52369;52.542;13.232;2023-09-12T09:40:55;17.02;;;8.82;;
65667;SDS011;52369;52.542;13.232;2023-09-12T09:43:21;17.17;;;8.75;;
65667;SDS011;52369;52.542;13.232;2023-09-12T09:45:47;19.02;;;8.93;;
65667;SDS011;52369;52.542;13.232;2023-09-12T09:48:20;16.38;;;8.70;;
65667;SDS011;52369;52.542;13.232;2023-09-12T09:50:46;16.48;;;8.80;;
65667;SDS011;52369;52.542;13.232;2023-09-12T09:53:12;14.52;;;8.73;;
65667;SDS011;52369;52.542;13.232;2023-09-12T09:55:39;57.13;;;36.50;;
65667;SDS011;52369;52.542;13.232;2023-09-12T09:58:05;78.88;;;42.60;;
65667;SDS011;52369;52.542;13.232;2023-09-12T10:00:33;71.40;;;31.38;;
65667;SDS011;52369;52.542;13.232;2023-09-12T10:02:59;86.22;;;42.63;;
65667;SDS011;52369;52.542;13.232;2023-09-12T10:05:27;21.58;;;12.10;;
65667;SDS011;52369;52.542;13.232;2023-09-12T10:07:54;29.63;;;15.65;;
65667;SDS011;52369;52.542;13.232;2023-09-12T10:10:21;24.05;;;13.63;;
65667;SDS011;52369;52.542;13.232;2023-09-12T10:12:50;14.27;;;8.23;;
65667;SDS011;52369;52.542;13.232;2023-09-12T10:15:17;16.25;;;8.57;;
65667;SDS011;52369;52.542;13.232;2023-09-12T10:17:45;17.00;;;10.05;;
65667;SDS011;52369;52.542;13.232;2023-09-12T10:20:15;14.82;;;8.88;;
65667;SDS011;52369;52.542;13.232;2023-09-12T10:23:01;15.98;;;8.13;;
65667;SDS011;52369;52.542;13.232;2023-09-12T10:25:33;17.35;;;8.10;;
65667;SDS011;52369;52.542;13.232;2023-09-12T10:28:01;38.08;;;25.63;;
65667;SDS011;52369;52.542;13.232;2023-09-12T10:30:28;15.20;;;9.05;;
65667;SDS011;52369;52.542;13.232;2023-09-12T10:32:55;14.82;;;8.18;;
65667;SDS011;52369;52.542;13.232;2023-09-12T10:35:22;12.35;;;7.35;;
65667;SDS011;52369;52.542;13.232;2023-09-12T10:37:49;14.23;;;7.38;;
65667;SDS011;52369;52.542;13.232;2023-09-12T10:40:16;12.18;;;7.90;;
65667;SDS011;52369;52.542;13.232;2023-09-12T10:42:44;14.60;;;8.13;;
65667;SDS011;52369;52.542;13.232;2023-09-12T10:45:10;14.95;;;8.05;;
65667;SDS011;52369;52.542;13.232;2023-09-12T10:47:36;11.43;;;7.03;;
65667;SDS011;52369;52.542;13.232;2023-09-12T10:50:03;11.77;;;6.63;;
65667;SDS011;52369;52.542;13.232;2023-09-12T10:52:29;9.85;;;6.50;;
65667;SDS011;52369;52.542;13.232;2023-09-12T10:54:56;12.38;;;6.30;;
65667;SDS011;52369;52.542;13.232;2023-09-12T10:57:22;13.40;;;6.32;;
65667;SDS011;52369;52.542;13.232;2023-09-12T11:04:55;10.73;;;6.25;;
65667;SDS011;52369;52.542;13.232;2023-09-12T11:12:43;10.50;;;6.35;;
65667;SDS011;52369;52.542;13.232;2023-09-12T11:15:10;12.95;;;6.13;;
65667;SDS011;52369;52.542;13.232;2023-09-12T11:17:39;11.70;;;6.22;;
65667;SDS011;52369;52.542;13.232;2023-09-12T11:20:05;10.88;;;6.47;;
65667;SDS011;52369;52.542;13.232;2023-09-12T11:22:36;13.60;;;7.43;;
65667;SDS011;52369;52.542;13.232;2023-09-12T11:25:04;8.73;;;6.10;;
65667;SDS011;52369;52.542;13.232;2023-09-12T11:27:43;11.85;;;6.72;;
65667;SDS011;52369;52.542;13.232;2023-09-12T11:30:10;11.35;;;6.35;;
65667;SDS011;52369;52.542;13.232;2023-09-12T11:32:36;12.27;;;7.80;;
65667;SDS011;52369;52.542;13.232;2023-09-12T11:35:06;10.77;;;6.18;;
65667;SDS011;52369;52.542;13.232;2023-09-12T11:37:32;9.05;;;5.63;;
65667;SDS011;52369;52.542;13.232;2023-09-12T11:40:00;10.30;;;6.45;;
65667;SDS011;52369;52.542;13.232;2023-09-12T11:42:26;11.15;;;6.28;;
65667;SDS011;52369;52.542;13.232;2023-09-12T11:44:52;12.25;;;6.07;;
65667;SDS011;52369;52.542;13.232;2023-09-12T11:47:19;36.40;;;24.00;;
65667;SDS011;52369;52.542;13.232;2023-09-12T11:49:45;27.60;;;20.10;;
65667;SDS011;52369;52.542;13.232;2023-09-12T11:52:12;27.75;;;19.98;;
65667;SDS011;52369;52.542;13.232;2023-09-12T11:54:39;19.88;;;14.00;;
65667;SDS011;52369;52.542;13.232;2023-09-12T11:57:07;10.50;;;6.72;;
65667;SDS011;52369;52.542;13.232;2023-09-12T11:59:36;10.95;;;6.85;;
65667;SDS011;52369;52.542;13.232;2023-09-12T12:02:05;10.85;;;6.35;;
65667;SDS011;52369;52.542;13.232;2023-09-12T12:04:31;7.05;;;5.30;;
65667;SDS011;52369;52.542;13.232;2023-09-12T12:06:57;7.57;;;4.97;;
65667;SDS011;52369;52.542;13.232;2023-09-12T12:09:24;10.40;;;5.70;;
65667;SDS011;52369;52.542;13.232;2023-09-12T12:11:50;8.20;;;5.00;;
65667;SDS011;52369;52.542;13.232;2023-09-12T12:14:17;7.15;;;4.88;;
65667;SDS011;52369;52.542;13.232;2023-09-12T12:16:44;9.65;;;4.93;;
65667;SDS011;52369;52.542;13.232;2023-09-12T12:19:11;9.60;;;5.60;;
65667;SDS011;52369;52.542;13.232;2023-09-12T12:21:38;6.47;;;4.80;;
65667;SDS011;52369;52.542;13.232;2023-09-12T12:24:05;10.23;;;5.22;;
65667;SDS011;52369;52.542;13.232;2023-09-12T12:26:31;7.90;;;4.70;;
65667;SDS011;52369;52.542;13.232;2023-09-12T12:28:58;6.97;;;4.57;;
65667;SDS011;52369;52.542;13.232;2023-09-12T12:31:25;9.90;;;5.22;;
65667;SDS011;52369;52.542;13.232;2023-09-12T12:33:55;6.00;;;4.70;;
65667;SDS011;52369;52.542;13.232;2023-09-12T12:36:22;9.13;;;5.22;;
65667;SDS011;52369;52.542;13.232;2023-09-12T12:38:49;7.90;;;5.20;;
65667;SDS011;52369;52.542;13.232;2023-09-12T12:41:15;9.70;;;5.30;;
65667;SDS011;52369;52.542;13.232;2023-09-12T12:43:42;7.55;;;4.70;;
65667;SDS011;52369;52.542;13.232;2023-09-12T12:46:12;6.43;;;4.63;;
65667;SDS011;52369;52.542;13.232;2023-09-12T12:48:38;8.43;;;4.72;;
65667;SDS011;52369;52.542;13.232;2023-09-12T12:51:21;7.63;;;4.63;;
65667;SDS011;52369;52.542;13.232;2023-09-12T12:53:48;6.82;;;4.43;;
65667;SDS011;52369;52.542;13.232;2023-09-12T12:56:18;8.95;;;4.78;;
65667;SDS011;52369;52.542;13.232;2023-09-12T12:58:45;10.95;;;5.88;;
65667;SDS011;52369;52.542;13.232;2023-09-12T13:01:12;8.27;;;4.93;;
65667;SDS011;52369;52.542;13.232;2023-09-12T13:03:38;9.80;;;6.00;;
65667;SDS011;52369;52.542;13.232;2023-09-12T13:06:04;11.15;;;6.07;;
65667;SDS011;52369;52.542;13.232;2023-09-12T13:08:31;11.65;;;5.47;;
65667;SDS011;52369;52.542;13.232;2023-09-12T13:10:59;11.40;;;5.97;;
65667;SDS011;52369;52.542;13.232;2023-09-12T13:13:26;9.88;;;5.22;;
65667;SDS011;52369;52.542;13.232;2023-09-12T13:15:52;12.30;;;5.53;;
65667;SDS011;52369;52.542;13.232;2023-09-12T13:18:18;9.60;;;5.10;;
65667;SDS011;52369;52.542;13.232;2023-09-12T13:20:44;13.35;;;5.82;;
65667;SDS011;52369;52.542;13.232;2023-09-12T13:23:10;10.40;;;4.57;;
65667;SDS011;52369;52.542;13.232;2023-09-12T13:25:36;8.75;;;5.03;;
65667;SDS011;52369;52.542;13.232;2023-09-12T13:28:03;12.75;;;5.80;;
65667;SDS011;52369;52.542;13.232;2023-09-12T13:30:29;9.90;;;5.03;;
65667;SDS011;52369;52.542;13.232;2023-09-12T13:32:55;12.25;;;5.40;;
65667;SDS011;52369;52.542;13.232;2023-09-12T13:35:21;12.48;;;5.30;;
65667;SDS011;52369;52.542;13.232;2023-09-12T13:37:47;98.90;;;66.50;;
65667;SDS011;52369;52.542;13.232;2023-09-12T13:40:13;63.72;;;35.22;;
65667;SDS011;52369;52.542;13.232;2023-09-12T13:42:39;43.50;;;28.67;;
65667;SDS011;52369;52.542;13.232;2023-09-12T13:45:06;29.98;;;18.42;;
65667;SDS011;52369;52.542;13.232;2023-09-12T13:47:32;27.13;;;15.75;;
65667;SDS011;52369;52.542;13.232;2023-09-12T13:49:58;14.20;;;6.43;;
65667;SDS011;52369;52.542;13.232;2023-09-12T13:52:25;11.48;;;6.20;;
65667;SDS011;52369;52.542;13.232;2023-09-12T13:54:52;15.23;;;6.90;;
65667;SDS011;52369;52.542;13.232;2023-09-12T13:57:18;10.63;;;5.70;;
65667;SDS011;52369;52.542;13.232;2023-09-12T13:59:44;14.38;;;6.45;;
65667;SDS011;52369;52.542;13.232;2023-09-12T14:02:11;11.48;;;6.13;;
65667;SDS011;52369;52.542;13.232;2023-09-12T14:04:37;14.52;;;7.30;;
65667;SDS011;52369;52.542;13.232;2023-09-12T14:07:03;18.33;;;9.02;;
65667;SDS011;52369;52.542;13.232;2023-09-12T14:09:29;9.32;;;5.10;;
65667;SDS011;52369;52.542;13.232;2023-09-12T14:11:55;12.90;;;5.80;;
65667;SDS011;52369;52.542;13.232;2023-09-12T14:14:21;13.27;;;5.63;;
65667;SDS011;52369;52.542;13.232;2023-09-12T14:16:47;11.27;;;5.82;;
65667;SDS011;52369;52.542;13.232;2023-09-12T14:19:13;13.20;;;5.72;;
65667;SDS011;52369;52.542;13.232;2023-09-12T14:21:39;9.93;;;5.00;;
65667;SDS011;52369;52.542;13.232;2023-09-12T14:24:05;9.25;;;4.32;;
65667;SDS011;52369;52.542;13.232;2023-09-12T14:26:31;9.38;;;4.00;;
65667;SDS011;52369;52.542;13.232;2023-09-12T14:28:57;9.25;;;3.90;;
65667;SDS011;52369;52.542;13.232;2023-09-12T14:31:24;8.20;;;4.03;;
65667;SDS011;52369;52.542;13.232;2023-09-12T14:33:50;8.48;;;3.85;;
65667;SDS011;52369;52.542;13.232;2023-09-12T14:36:17;11.02;;;5.78;;